createdAt,value
2022-10-11T03:52:43.925Z,15.15
2022-10-11T03:55:10.362Z,13.13
2022-10-11T03:57:36.799Z,13.23
2022-10-11T04:00:05.154Z,12.40
2022-10-11T04:02:33.730Z,13.50
2022-10-11T04:05:05.914Z,14.73
2022-10-11T04:07:33.266Z,12.50
2022-10-11T04:09:59.906Z,13.05
2022-10-11T04:12:26.338Z,13.35
2022-10-11T04:14:52.744Z,13.80
2022-10-11T04:17:19.150Z,13.15
2022-10-11T04:19:45.625Z,10.83
2022-10-11T04:22:12.037Z,12.77
2022-10-11T04:24:38.542Z,12.75
2022-10-11T04:27:04.965Z,11.00
2022-10-11T04:29:32.769Z,13.70
2022-10-11T04:31:59.613Z,12.67
2022-10-11T04:34:26.138Z,13.48
2022-10-11T04:36:52.545Z,13.43
2022-10-11T04:39:18.981Z,14.05
2022-10-11T04:41:45.402Z,12.73
2022-10-11T04:44:11.814Z,12.53
2022-10-11T04:46:38.233Z,11.88
2022-10-11T04:49:04.690Z,14.10
2022-10-11T04:51:31.550Z,12.35
2022-10-11T04:53:58.012Z,12.65
2022-10-11T04:56:24.504Z,17.07
2022-10-11T04:58:54.082Z,11.18
2022-10-11T05:01:21.266Z,11.63
2022-10-11T05:03:47.872Z,10.73
2022-10-11T05:06:14.462Z,13.57
2022-10-11T05:08:41.315Z,11.10
2022-10-11T05:11:10.655Z,13.13
2022-10-11T05:13:37.434Z,15.27
2022-10-11T05:16:09.622Z,14.68
2022-10-11T05:18:37.433Z,11.15
2022-10-11T05:21:05.673Z,13.97
2022-10-11T05:23:33.294Z,12.38
2022-10-11T05:26:00.087Z,10.55
2022-10-11T05:28:26.883Z,14.60
2022-10-11T05:30:53.807Z,12.02
2022-10-11T05:33:20.419Z,12.30
2022-10-11T05:35:47.255Z,13.20
2022-10-11T05:38:13.813Z,13.02
2022-10-11T05:40:40.543Z,10.68
2022-10-11T05:43:07.052Z,11.63
2022-10-11T05:45:36.835Z,13.37
2022-10-11T05:48:03.454Z,12.05
2022-10-11T05:50:30.142Z,15.25
2022-10-11T05:52:56.944Z,14.30
2022-10-11T05:55:23.365Z,14.63
2022-10-11T05:57:57.410Z,11.83
2022-10-11T06:00:24.321Z,14.90
2022-10-11T06:02:50.729Z,11.35
2022-10-11T06:05:17.281Z,14.63
2022-10-11T06:07:44.734Z,10.10
2022-10-11T06:10:11.474Z,12.77
2022-10-11T06:12:38.699Z,14.20
2022-10-11T06:15:06.340Z,16.58
2022-10-11T06:17:32.803Z,12.18
2022-10-11T06:19:59.289Z,16.05
2022-10-11T06:22:26.673Z,15.20
2022-10-11T06:24:53.101Z,13.23
2022-10-11T06:27:19.508Z,15.10
2022-10-11T06:29:45.927Z,12.75
2022-10-11T06:32:13.343Z,12.65
2022-10-11T06:34:48.838Z,12.03
2022-10-11T06:37:19.470Z,13.98
2022-10-11T06:39:46.926Z,12.00
2022-10-11T06:42:13.391Z,14.50
2022-10-11T06:44:39.955Z,17.35
2022-10-11T06:47:06.842Z,12.53
2022-10-11T06:49:34.050Z,13.00
2022-10-11T06:52:00.563Z,11.07
2022-10-11T06:54:27.174Z,10.55
2022-10-11T06:56:53.584Z,12.18
2022-10-11T06:59:21.291Z,11.00
2022-10-11T07:01:47.781Z,12.75
2022-10-11T07:04:14.237Z,13.77
2022-10-11T07:06:41.483Z,14.77
2022-10-11T07:09:08.489Z,11.32
2022-10-11T07:11:35.585Z,16.40
2022-10-11T07:14:05.731Z,11.68
2022-10-11T07:16:32.142Z,11.27
2022-10-11T07:19:00.908Z,11.00
2022-10-11T07:21:28.719Z,13.00
2022-10-11T07:23:55.290Z,12.30
2022-10-11T07:26:24.845Z,12.43
2022-10-11T07:28:51.606Z,13.25
2022-10-11T07:31:20.510Z,10.88
2022-10-11T07:33:47.069Z,11.48
2022-10-11T07:36:15.544Z,11.67
2022-10-11T07:38:44.553Z,11.93
2022-10-11T07:41:11.345Z,11.55
2022-10-11T07:43:39.592Z,12.77
2022-10-11T07:46:06.861Z,13.25
2022-10-11T07:48:34.985Z,13.30
2022-10-11T07:51:07.238Z,11.55
2022-10-11T07:53:51.760Z,12.60
2022-10-11T07:56:20.987Z,15.77
2022-10-11T07:58:52.551Z,14.80
2022-10-11T08:01:19.837Z,16.23
2022-10-11T08:03:46.658Z,11.40
2022-10-11T08:06:14.975Z,9.90
2022-10-11T08:08:41.887Z,13.20
2022-10-11T08:11:08.612Z,15.07
2022-10-11T08:13:36.589Z,15.47
2022-10-11T08:16:09.915Z,16.35
2022-10-11T08:18:36.357Z,14.30
2022-10-11T08:21:10.308Z,16.92
2022-10-11T08:23:37.149Z,15.25
2022-10-11T08:26:04.857Z,13.53
2022-10-11T08:28:33.447Z,14.70
2022-10-11T08:31:00.105Z,15.38
2022-10-11T08:33:26.829Z,12.70
2022-10-11T08:35:54.411Z,13.68
2022-10-11T08:38:21.510Z,12.63
2022-10-11T08:40:50.314Z,13.25
2022-10-11T08:43:51.938Z,13.27
2022-10-11T08:46:24.174Z,15.88
2022-10-11T08:48:51.196Z,12.55
2022-10-11T08:51:24.132Z,12.57
2022-10-11T08:54:07.131Z,14.45
2022-10-11T08:56:36.385Z,12.13
2022-10-11T08:59:11.227Z,16.92
2022-10-11T09:01:43.497Z,13.88
2022-10-11T09:04:15.210Z,13.97
2022-10-11T09:07:04.593Z,12.68
2022-10-11T09:09:56.218Z,11.05
2022-10-11T09:12:45.309Z,14.50
2022-10-11T09:15:30.607Z,14.45
2022-10-11T09:18:32.502Z,13.33
2022-10-11T09:21:01.909Z,22.27
2022-10-11T09:24:16.727Z,13.27
2022-10-11T09:26:46.011Z,15.50
2022-10-11T09:29:38.170Z,13.65
2022-10-11T09:32:15.333Z,16.90
2022-10-11T09:34:45.248Z,21.70
2022-10-11T09:37:34.678Z,21.33
2022-10-11T09:40:38.617Z,17.08
2022-10-11T09:43:05.755Z,16.95
2022-10-11T09:45:32.190Z,20.33
2022-10-11T09:47:59.846Z,19.90
2022-10-11T09:50:29.567Z,20.00
2022-10-11T09:52:59.859Z,18.08
2022-10-11T09:56:01.173Z,21.17
2022-10-11T09:58:34.476Z,18.17
2022-10-11T10:01:08.070Z,16.40
2022-10-11T10:03:42.621Z,18.65
2022-10-11T10:06:28.338Z,17.58
2022-10-11T10:08:55.751Z,16.25
2022-10-11T10:11:22.313Z,20.13
2022-10-11T10:13:53.081Z,19.70
2022-10-11T10:16:33.292Z,21.75
2022-10-11T10:19:07.740Z,19.23
2022-10-11T10:21:42.467Z,17.45
2022-10-11T10:24:18.936Z,20.00
2022-10-11T10:27:20.841Z,19.75
2022-10-11T10:30:16.824Z,19.35
2022-10-11T10:32:52.151Z,20.48
2022-10-11T10:35:29.765Z,18.00
2022-10-11T10:38:07.022Z,18.80
2022-10-11T10:40:41.177Z,18.23
2022-10-11T10:43:15.536Z,20.67
2022-10-11T10:45:53.221Z,19.40
2022-10-11T10:49:18.775Z,18.92
2022-10-11T10:51:48.834Z,21.80
2022-10-11T10:54:34.945Z,21.33
2022-10-11T10:57:12.626Z,21.17
2022-10-11T10:59:44.756Z,18.67
2022-10-11T11:02:39.717Z,18.30
2022-10-11T11:05:34.046Z,15.03
2022-10-11T11:08:10.548Z,18.25
2022-10-11T11:10:42.011Z,18.65
2022-10-11T11:13:20.390Z,20.25
2022-10-11T11:15:51.170Z,17.80
2022-10-11T11:18:29.318Z,23.60
2022-10-11T11:21:21.415Z,16.73
2022-10-11T11:24:06.165Z,18.80
2022-10-11T11:26:49.907Z,21.90
2022-10-11T11:29:35.448Z,17.98
2022-10-11T11:32:18.328Z,16.83
2022-10-11T11:34:52.523Z,19.38
2022-10-11T11:37:23.330Z,19.70
2022-10-11T11:39:57.213Z,19.92
2022-10-11T11:42:30.117Z,24.50
2022-10-11T11:44:56.915Z,19.47
2022-10-11T11:47:37.174Z,18.00
2022-10-11T11:50:22.184Z,20.52
2022-10-11T11:52:53.107Z,20.38
2022-10-11T11:55:22.997Z,21.42
2022-10-11T11:57:55.335Z,24.07
2022-10-11T12:00:28.873Z,20.05
2022-10-11T12:03:04.346Z,22.98
2022-10-11T12:05:33.571Z,19.15
2022-10-11T12:08:03.673Z,22.15
2022-10-11T12:10:54.276Z,24.10
2022-10-11T12:13:34.670Z,23.88
2022-10-11T12:16:04.098Z,22.30
2022-10-11T12:18:31.328Z,19.35
2022-10-11T12:21:22.680Z,18.48
2022-10-11T12:23:55.133Z,20.47
2022-10-11T12:26:27.611Z,19.23
2022-10-11T12:29:47.948Z,20.50
2022-10-11T12:32:34.631Z,17.88
2022-10-11T12:35:32.229Z,18.52
2022-10-11T12:38:24.770Z,19.30
2022-10-11T12:40:57.309Z,18.52
2022-10-11T12:43:28.117Z,20.75
2022-10-11T12:45:54.571Z,17.48
2022-10-11T12:48:35.902Z,20.83
2022-10-11T12:51:54.921Z,21.33
2022-10-11T12:54:52.602Z,19.48
2022-10-11T12:57:39.644Z,19.60
2022-10-11T13:00:32.408Z,17.63
2022-10-11T13:03:01.656Z,19.98
2022-10-11T13:05:34.083Z,21.90
2022-10-11T13:08:04.244Z,21.90
2022-10-11T13:10:34.941Z,18.08
2022-10-11T13:13:04.415Z,18.85
2022-10-11T13:15:31.063Z,23.35
2022-10-11T13:18:01.038Z,22.93
2022-10-11T13:20:36.226Z,20.08
2022-10-11T13:23:21.599Z,21.67
2022-10-11T13:25:48.374Z,19.08
2022-10-11T13:28:15.662Z,20.13
2022-10-11T13:30:46.602Z,18.27
2022-10-11T13:33:23.570Z,18.88
2022-10-11T13:35:53.257Z,23.38
2022-10-11T13:38:31.391Z,22.98
2022-10-11T13:40:59.517Z,21.98
2022-10-11T13:43:28.024Z,21.77
2022-10-11T13:45:56.080Z,17.88
2022-10-11T13:48:24.482Z,21.52
2022-10-11T13:51:05.738Z,25.13
2022-10-11T13:53:32.211Z,18.55
2022-10-11T13:56:09.449Z,19.37
2022-10-11T13:58:40.439Z,18.33
2022-10-11T14:01:17.982Z,19.42
2022-10-11T14:03:47.307Z,21.10
2022-10-11T14:06:13.768Z,19.65
2022-10-11T14:08:44.236Z,24.13
2022-10-11T14:11:14.207Z,19.52
2022-10-11T14:13:49.676Z,20.35
2022-10-11T14:16:16.365Z,22.60
2022-10-11T14:18:50.019Z,18.88
2022-10-11T14:21:19.446Z,17.97
2022-10-11T14:24:10.651Z,23.15
2022-10-11T14:26:40.263Z,17.58
2022-10-11T14:29:36.499Z,18.83
2022-10-11T14:32:10.195Z,18.83
2022-10-11T14:34:36.850Z,17.40
2022-10-11T14:37:03.746Z,18.75
2022-10-11T14:39:31.830Z,24.63
2022-10-11T14:41:58.741Z,20.45
2022-10-11T14:44:25.452Z,17.80
2022-10-11T14:46:54.525Z,18.00
2022-10-11T14:49:27.098Z,20.48
2022-10-11T14:51:55.007Z,16.88
2022-10-11T14:54:24.169Z,20.23
2022-10-11T14:56:52.396Z,17.65
2022-10-11T14:59:21.261Z,18.63
2022-10-11T15:01:51.712Z,16.77
2022-10-11T15:04:18.948Z,20.02
2022-10-11T15:06:45.370Z,23.00
2022-10-11T15:09:11.997Z,17.98
2022-10-11T15:11:38.955Z,18.53
2022-10-11T15:14:06.221Z,21.35
2022-10-11T15:16:34.233Z,17.67
2022-10-11T15:19:00.736Z,18.98
2022-10-11T15:21:28.769Z,18.58
2022-10-11T15:23:55.743Z,17.03
2022-10-11T15:26:30.208Z,17.73
2022-10-11T15:28:57.628Z,20.02
2022-10-11T15:31:24.339Z,24.85
2022-10-11T15:33:50.846Z,18.52
2022-10-11T15:36:20.299Z,20.20
2022-10-11T15:38:47.293Z,22.77
2022-10-11T15:41:15.705Z,23.80
2022-10-11T15:43:43.547Z,21.10
2022-10-11T15:46:14.678Z,20.90
2022-10-11T15:48:41.102Z,21.50
2022-10-11T15:51:07.514Z,23.10
2022-10-11T15:53:33.929Z,22.42
2022-10-11T15:56:09.515Z,22.88
2022-10-11T15:58:38.748Z,21.08
2022-10-11T16:01:23.581Z,22.83
2022-10-11T16:03:50.857Z,21.30
2022-10-11T16:06:18.914Z,18.90
2022-10-11T16:08:45.365Z,23.88
2022-10-11T16:11:12.474Z,22.35
2022-10-11T16:13:39.422Z,20.93
2022-10-11T16:16:08.117Z,22.92
2022-10-11T16:18:35.838Z,24.45
2022-10-11T16:21:07.278Z,22.92
2022-10-11T16:23:34.049Z,22.75
2022-10-11T16:26:03.260Z,24.93
2022-10-11T16:28:30.054Z,24.98
2022-10-11T16:30:56.674Z,23.92
2022-10-11T16:33:23.399Z,25.05
2022-10-11T16:35:49.880Z,21.70
2022-10-11T16:38:16.383Z,24.53
2022-10-11T16:40:43.414Z,26.65
2022-10-11T16:43:10.221Z,23.73
2022-10-11T16:45:36.960Z,23.23
2022-10-11T16:48:03.786Z,24.25
2022-10-11T16:50:30.212Z,25.07
2022-10-11T16:52:56.718Z,28.10
2022-10-11T16:55:23.157Z,28.60
2022-10-11T16:57:49.574Z,25.58
2022-10-11T17:00:16.243Z,25.35
2022-10-11T17:02:42.730Z,24.50
2022-10-11T17:05:09.258Z,26.23
2022-10-11T17:07:35.736Z,28.90
2022-10-11T17:10:02.429Z,23.73
2022-10-11T17:12:28.930Z,24.27
2022-10-11T17:14:55.558Z,23.60
2022-10-11T17:17:22.100Z,37.88
2022-10-11T17:19:48.518Z,23.50
2022-10-11T17:22:18.059Z,22.50
2022-10-11T17:24:44.755Z,26.52
2022-10-11T17:27:11.327Z,24.17
2022-10-11T17:29:38.214Z,23.80
2022-10-11T17:32:04.866Z,20.50
2022-10-11T17:34:31.368Z,26.60
2022-10-11T17:36:57.774Z,21.35
2022-10-11T17:39:25.242Z,25.30
2022-10-11T17:41:52.039Z,22.45
2022-10-11T17:44:18.791Z,22.42
2022-10-11T17:46:46.142Z,20.88
2022-10-11T17:49:12.956Z,22.80
2022-10-11T17:51:40.241Z,24.07
2022-10-11T17:54:12.127Z,22.95
2022-10-11T17:56:39.909Z,21.70
2022-10-11T17:59:06.762Z,22.88
2022-10-11T18:01:33.256Z,20.42
2022-10-11T18:04:01.866Z,21.50
2022-10-11T18:06:31.021Z,20.20
2022-10-11T18:09:00.598Z,19.88
2022-10-11T18:11:27.176Z,22.95
2022-10-11T18:13:53.670Z,24.33
2022-10-11T18:16:22.209Z,20.27
2022-10-11T18:18:48.742Z,18.77
2022-10-11T18:21:16.125Z,21.20
2022-10-11T18:23:42.608Z,22.42
2022-10-11T18:26:20.549Z,20.92
2022-10-11T18:28:47.854Z,19.70
2022-10-11T18:31:18.073Z,20.98
2022-10-11T18:33:50.826Z,19.35
2022-10-11T18:36:20.185Z,18.42
2022-10-11T18:38:48.929Z,20.60
2022-10-11T18:41:17.537Z,22.70
2022-10-11T18:43:49.116Z,22.05
2022-10-11T18:46:15.569Z,19.38
2022-10-11T18:48:43.906Z,21.33
2022-10-11T18:51:14.837Z,22.27
2022-10-11T18:53:41.999Z,21.03
2022-10-11T18:56:10.333Z,22.25
2022-10-11T18:58:39.012Z,25.08
2022-10-11T19:01:15.858Z,20.50
2022-10-11T19:03:43.448Z,21.80
2022-10-11T19:06:18.510Z,17.90
2022-10-11T19:08:50.004Z,20.17
2022-10-11T19:11:17.733Z,19.48
2022-10-11T19:13:44.296Z,21.15
2022-10-11T19:16:13.375Z,18.30
2022-10-11T19:18:44.025Z,20.63
2022-10-11T19:21:12.363Z,22.42
2022-10-11T19:23:43.713Z,19.13
2022-10-11T19:26:21.469Z,19.70
2022-10-11T19:28:49.105Z,19.15
2022-10-11T19:31:19.049Z,18.50
2022-10-11T19:33:47.901Z,18.45
2022-10-11T19:36:14.562Z,17.95
2022-10-11T19:38:45.112Z,18.70
2022-10-11T19:41:12.195Z,20.92
2022-10-11T19:43:38.785Z,17.20
2022-10-11T19:46:11.695Z,17.23
2022-10-11T19:48:39.499Z,20.65
2022-10-11T19:51:17.337Z,20.35
2022-10-11T19:53:44.234Z,18.75
2022-10-11T19:56:13.570Z,16.47
2022-10-11T19:58:40.666Z,17.33
